createdAt,value
2023-06-13T00:01:10.033Z,40.46
2023-06-13T00:03:38.245Z,40.38
2023-06-13T00:06:04.963Z,39.44
2023-06-13T00:08:32.711Z,39.93
2023-06-13T00:11:00.227Z,38.88
2023-06-13T00:13:26.915Z,39.36
2023-06-13T00:15:57.390Z,39.24
2023-06-13T00:18:24.367Z,39.56
2023-06-13T00:20:56.126Z,40.47
2023-06-13T00:23:23.696Z,40.39
2023-06-13T00:25:50.868Z,40.78
2023-06-13T00:28:17.515Z,40.97
2023-06-13T00:30:45.078Z,41.19
2023-06-13T00:33:17.499Z,40.91
2023-06-13T00:35:46.458Z,41.60
2023-06-13T00:38:13.448Z,42.39
2023-06-13T00:40:41.180Z,42.66
2023-06-13T00:43:08.299Z,43.43
2023-06-13T00:45:35.824Z,43.86
2023-06-13T00:48:07.144Z,43.36
2023-06-13T00:50:41.494Z,43.72
2023-06-13T00:53:17.409Z,43.50
2023-06-13T00:55:46.804Z,43.60
2023-06-13T00:58:14.628Z,44.41
2023-06-13T01:00:41.667Z,44.18
2023-06-13T01:03:10.095Z,44.19
2023-06-13T01:05:39.748Z,44.43
2023-06-13T01:08:10.906Z,44.76
2023-06-13T01:10:41.142Z,44.82
2023-06-13T01:13:31.950Z,44.42
2023-06-13T01:16:07.176Z,44.96
2023-06-13T01:18:36.265Z,45.50
2023-06-13T01:21:05.932Z,46.01
2023-06-13T01:23:44.579Z,45.74
2023-06-13T01:26:23.453Z,45.76
2023-06-13T01:28:53.050Z,45.11
2023-06-13T01:31:23.805Z,45.79
2023-06-13T01:33:52.163Z,45.21
2023-06-13T01:36:19.511Z,44.96
2023-06-13T01:38:47.134Z,44.33
2023-06-13T01:41:13.645Z,44.93
2023-06-13T01:43:40.242Z,45.08
2023-06-13T01:46:14.149Z,44.27
2023-06-13T01:49:18.386Z,44.58
2023-06-13T01:52:08.879Z,44.55
2023-06-13T01:54:42.677Z,44.36
2023-06-13T01:57:10.784Z,44.55
2023-06-13T01:59:39.318Z,44.10
2023-06-13T02:02:06.180Z,43.65
2023-06-13T02:04:41.174Z,43.73
2023-06-13T02:07:07.875Z,43.58
2023-06-13T02:09:34.335Z,44.28
2023-06-13T02:12:01.081Z,44.06
2023-06-13T02:14:33.706Z,43.75
2023-06-13T02:17:01.869Z,43.89
2023-06-13T02:19:31.213Z,43.88
2023-06-13T02:21:57.758Z,43.63
2023-06-13T02:24:24.333Z,43.87
2023-06-13T02:26:51.954Z,44.83
2023-06-13T02:29:19.526Z,44.54
2023-06-13T02:31:46.858Z,45.17
2023-06-13T02:34:13.772Z,45.21
2023-06-13T02:36:40.290Z,45.55
2023-06-13T02:39:08.676Z,46.13
2023-06-13T02:41:35.259Z,46.08
2023-06-13T02:44:02.619Z,46.58
2023-06-13T02:46:29.234Z,46.76
2023-06-13T02:48:56.282Z,46.88
2023-06-13T02:51:22.827Z,46.32
2023-06-13T02:53:49.322Z,46.92
2023-06-13T02:56:16.189Z,47.71
2023-06-13T02:58:42.735Z,47.43
2023-06-13T03:01:09.992Z,48.20
2023-06-13T03:03:36.704Z,48.15
2023-06-13T03:06:03.983Z,48.03
2023-06-13T03:08:36.437Z,48.47
2023-06-13T03:11:03.384Z,48.63
2023-06-13T03:13:30.518Z,48.80
2023-06-13T03:15:58.627Z,48.61
2023-06-13T03:18:27.511Z,49.24
2023-06-13T03:20:55.504Z,48.98
2023-06-13T03:23:23.745Z,49.14
2023-06-13T03:25:51.544Z,49.29
2023-06-13T03:28:18.334Z,49.28
2023-06-13T03:30:48.598Z,50.11
2023-06-13T03:33:15.126Z,49.29
2023-06-13T03:35:45.362Z,49.83
2023-06-13T03:38:14.312Z,49.45
2023-06-13T03:40:40.807Z,49.70
2023-06-13T03:43:07.272Z,49.78
2023-06-13T03:45:34.104Z,49.98
2023-06-13T03:48:01.527Z,50.42
2023-06-13T03:50:28.411Z,50.07
2023-06-13T03:52:54.983Z,50.17
2023-06-13T03:55:25.165Z,50.61
2023-06-13T03:57:51.708Z,50.00
2023-06-13T04:00:18.782Z,50.10
2023-06-13T04:02:46.652Z,50.77
2023-06-13T04:05:14.441Z,50.85
2023-06-13T04:07:41.536Z,50.33
2023-06-13T04:10:08.229Z,50.41
2023-06-13T04:12:36.482Z,50.75
2023-06-13T04:15:03.508Z,50.96
2023-06-13T04:17:30.502Z,50.70
2023-06-13T04:19:57.364Z,50.59
2023-06-13T04:22:23.929Z,50.79
2023-06-13T04:24:52.211Z,50.85
2023-06-13T04:27:20.776Z,50.89
2023-06-13T04:29:49.971Z,51.39
2023-06-13T04:32:19.121Z,50.95
2023-06-13T04:34:46.572Z,51.53
2023-06-13T04:37:14.407Z,51.39
2023-06-13T04:39:40.983Z,51.75
2023-06-13T04:42:07.635Z,51.23
2023-06-13T04:44:34.231Z,51.23
2023-06-13T04:47:02.947Z,51.08
2023-06-13T04:49:30.107Z,51.02
2023-06-13T04:51:56.717Z,51.09
2023-06-13T04:54:23.373Z,51.15
2023-06-13T04:56:50.229Z,50.55
2023-06-13T04:59:16.924Z,50.80
2023-06-13T05:01:44.624Z,50.04
2023-06-13T05:04:11.656Z,49.93
2023-06-13T05:06:38.880Z,49.10
2023-06-13T05:09:07.446Z,48.66
2023-06-13T05:11:34.221Z,48.80
2023-06-13T05:14:00.807Z,48.44
2023-06-13T05:16:31.218Z,47.58
2023-06-13T05:18:59.419Z,47.95
2023-06-13T05:21:26.293Z,47.92
2023-06-13T05:23:53.288Z,47.79
2023-06-13T05:26:19.838Z,47.24
2023-06-13T05:28:46.315Z,47.68
2023-06-13T05:31:14.362Z,47.53
2023-06-13T05:33:41.288Z,47.73
2023-06-13T05:36:07.872Z,46.99
2023-06-13T05:38:38.148Z,46.38
2023-06-13T05:41:04.981Z,46.22
2023-06-13T05:43:31.967Z,45.84
2023-06-13T05:45:58.700Z,44.60
2023-06-13T05:48:25.410Z,44.56
2023-06-13T05:50:52.128Z,44.01
2023-06-13T05:53:18.625Z,43.66
2023-06-13T05:55:45.639Z,43.50
2023-06-13T05:58:12.450Z,43.42
2023-06-13T06:00:38.894Z,43.17
2023-06-13T06:03:06.535Z,42.81
2023-06-13T06:05:33.396Z,42.72
2023-06-13T06:08:00.122Z,42.28
2023-06-13T06:10:26.652Z,42.06
2023-06-13T06:12:53.101Z,42.37
2023-06-13T06:15:19.874Z,41.76
2023-06-13T06:17:46.569Z,41.26
2023-06-13T06:20:13.796Z,40.85
2023-06-13T06:22:40.755Z,40.38
2023-06-13T06:25:09.872Z,40.42
2023-06-13T06:27:36.599Z,40.80
2023-06-13T06:30:06.038Z,40.02
2023-06-13T06:32:33.203Z,40.00
2023-06-13T06:34:59.693Z,40.06
2023-06-13T06:37:27.009Z,40.19
2023-06-13T06:39:53.644Z,39.64
2023-06-13T06:42:20.144Z,39.47
2023-06-13T06:44:58.838Z,40.16
2023-06-13T06:47:25.457Z,40.15
2023-06-13T06:49:51.983Z,39.49
2023-06-13T06:52:18.451Z,39.03
2023-06-13T06:54:44.897Z,38.40
2023-06-13T06:57:11.570Z,38.07
2023-06-13T06:59:38.341Z,37.50
2023-06-13T07:02:06.041Z,38.06
2023-06-13T07:04:33.354Z,38.85
2023-06-13T07:06:59.868Z,38.89
2023-06-13T07:09:26.405Z,37.91
2023-06-13T07:11:57.890Z,38.39
2023-06-13T07:14:26.617Z,38.34
2023-06-13T07:16:56.564Z,37.53
2023-06-13T07:19:24.377Z,35.99
2023-06-13T07:21:51.029Z,35.69
2023-06-13T07:24:17.469Z,35.35
2023-06-13T07:26:44.005Z,34.15
2023-06-13T07:29:10.510Z,34.23
2023-06-13T07:31:37.597Z,35.36
2023-06-13T07:34:08.124Z,36.04
2023-06-13T07:36:41.983Z,35.45
2023-06-13T07:39:14.948Z,35.73
2023-06-13T07:41:41.528Z,35.91
2023-06-13T07:44:07.985Z,35.93
2023-06-13T07:46:34.600Z,36.38
2023-06-13T07:49:02.134Z,36.98
2023-06-13T07:51:29.599Z,36.75
2023-06-13T07:53:56.386Z,36.85
2023-06-13T07:56:23.164Z,36.22
2023-06-13T07:58:49.714Z,35.23
2023-06-13T08:01:17.029Z,34.86
2023-06-13T08:03:45.502Z,35.64
2023-06-13T08:06:12.207Z,35.15
2023-06-13T08:08:39.237Z,34.65
2023-06-13T08:11:05.942Z,34.47
2023-06-13T08:13:32.486Z,34.77
2023-06-13T08:15:59.310Z,35.33
2023-06-13T08:18:26.250Z,36.16
2023-06-13T08:20:52.970Z,35.39
2023-06-13T08:23:19.486Z,35.29
2023-06-13T08:25:46.130Z,35.36
2023-06-13T08:28:14.358Z,35.25
2023-06-13T08:30:43.489Z,34.90
2023-06-13T08:33:10.338Z,34.69
2023-06-13T08:35:38.062Z,35.16
2023-06-13T08:38:04.986Z,35.60
2023-06-13T08:40:31.833Z,35.52
2023-06-13T08:43:02.073Z,35.68
2023-06-13T08:45:29.370Z,35.41
2023-06-13T08:47:57.287Z,35.47
2023-06-13T08:50:27.432Z,35.83
2023-06-13T08:52:56.658Z,35.67
2023-06-13T08:55:58.593Z,34.79
2023-06-13T08:58:15.178Z,33.83
2023-06-13T09:00:42.004Z,33.78
2023-06-13T09:03:13.483Z,34.34
2023-06-13T09:05:41.385Z,33.35
2023-06-13T09:08:29.366Z,33.20
2023-06-13T09:10:57.484Z,33.75
2023-06-13T09:13:25.496Z,33.79
2023-06-13T09:15:52.239Z,32.21
2023-06-13T09:18:20.098Z,32.54
2023-06-13T09:20:46.745Z,32.29
2023-06-13T09:23:17.149Z,31.76
2023-06-13T09:25:46.723Z,32.88
2023-06-13T09:28:33.527Z,31.51
2023-06-13T09:31:00.256Z,31.42
2023-06-13T09:33:27.162Z,31.70
2023-06-13T09:35:54.181Z,31.32
2023-06-13T09:38:24.366Z,31.38
2023-06-13T09:40:56.654Z,31.12
2023-06-13T09:43:24.678Z,30.64
2023-06-13T09:45:52.423Z,29.77
2023-06-13T09:48:19.574Z,31.21
2023-06-13T09:50:46.573Z,31.06
2023-06-13T09:53:13.430Z,30.17
2023-06-13T09:55:40.194Z,30.33
2023-06-13T09:58:22.396Z,29.84
2023-06-13T10:00:59.985Z,28.74
2023-06-13T10:03:28.539Z,28.30
2023-06-13T10:05:55.996Z,27.56
2023-06-13T10:08:23.107Z,27.70
2023-06-13T10:10:50.008Z,27.25
2023-06-13T10:13:22.865Z,27.59
2023-06-13T10:15:53.059Z,27.02
2023-06-13T10:18:26.075Z,26.75
2023-06-13T10:20:56.938Z,25.87
2023-06-13T10:23:27.838Z,25.73
2023-06-13T10:25:59.952Z,25.66
2023-06-13T10:28:46.184Z,25.74
2023-06-13T10:31:32.297Z,25.33
2023-06-13T10:34:26.878Z,25.07
2023-06-13T10:37:21.096Z,24.65
2023-06-13T10:40:06.061Z,24.69
2023-06-13T10:42:41.879Z,24.54
2023-06-13T10:45:16.287Z,23.06
2023-06-13T10:47:42.774Z,22.12
2023-06-13T10:50:09.668Z,21.50
2023-06-13T10:52:36.396Z,21.73
2023-06-13T10:55:03.372Z,23.02
2023-06-13T10:57:51.242Z,22.34
2023-06-13T11:00:30.324Z,22.34
2023-06-13T11:03:08.621Z,23.09
2023-06-13T11:05:42.980Z,23.62
2023-06-13T11:08:21.871Z,21.75
2023-06-13T11:10:50.403Z,22.78
2023-06-13T11:13:24.936Z,22.79
2023-06-13T11:15:57.175Z,21.38
2023-06-13T11:18:23.804Z,21.96
2023-06-13T11:20:51.021Z,22.12
2023-06-13T11:23:19.443Z,21.97
2023-06-13T11:25:53.535Z,21.60
2023-06-13T11:28:20.140Z,21.92
2023-06-13T11:30:48.646Z,21.07
2023-06-13T11:33:17.273Z,23.09
2023-06-13T11:35:50.856Z,21.61
2023-06-13T11:38:38.645Z,20.50
2023-06-13T11:41:06.091Z,20.56
2023-06-13T11:43:33.932Z,21.34
2023-06-13T11:46:02.793Z,20.62
2023-06-13T11:48:42.496Z,21.65
2023-06-13T11:51:16.555Z,21.25
2023-06-13T11:54:00.914Z,21.65
2023-06-13T11:56:29.166Z,21.11
2023-06-13T11:58:57.524Z,21.84
2023-06-13T12:01:29.070Z,21.22
2023-06-13T12:03:59.541Z,20.54
2023-06-13T12:06:27.039Z,20.06
2023-06-13T12:08:53.615Z,19.91
2023-06-13T12:11:26.343Z,19.11
2023-06-13T12:13:59.346Z,19.96
2023-06-13T12:16:29.060Z,20.98
2023-06-13T12:18:55.847Z,20.14
2023-06-13T12:21:36.136Z,20.56
2023-06-13T12:24:05.099Z,20.61
2023-06-13T12:26:34.808Z,21.08
2023-06-13T12:29:03.867Z,20.86
2023-06-13T12:31:37.096Z,22.22
2023-06-13T12:34:10.650Z,21.23
2023-06-13T12:36:47.799Z,21.52
2023-06-13T12:39:17.606Z,20.94
2023-06-13T12:41:46.985Z,21.58
2023-06-13T12:44:13.711Z,22.26
2023-06-13T12:46:40.390Z,21.99
2023-06-13T12:49:15.080Z,21.63
2023-06-13T12:51:46.440Z,21.56
2023-06-13T12:54:14.426Z,20.77
2023-06-13T12:56:50.706Z,21.20
2023-06-13T12:59:17.431Z,21.35
2023-06-13T13:01:44.150Z,21.76
2023-06-13T13:04:11.384Z,21.21
2023-06-13T13:06:41.645Z,21.11
2023-06-13T13:09:08.274Z,22.03
2023-06-13T13:11:34.823Z,21.49
2023-06-13T13:14:01.932Z,21.14
2023-06-13T13:16:28.443Z,21.56
2023-06-13T13:18:54.884Z,21.16
2023-06-13T13:21:21.405Z,20.78
2023-06-13T13:23:47.889Z,21.17
2023-06-13T13:26:14.481Z,20.70
2023-06-13T13:28:40.936Z,21.60
2023-06-13T13:31:07.507Z,21.03
2023-06-13T13:33:33.973Z,21.42
2023-06-13T13:36:00.520Z,21.22
2023-06-13T13:38:27.335Z,22.69
2023-06-13T13:40:55.093Z,23.35
2023-06-13T13:43:21.667Z,22.87
2023-06-13T13:45:48.157Z,23.46
2023-06-13T13:48:15.573Z,24.11
2023-06-13T13:50:42.562Z,23.97
2023-06-13T13:53:10.612Z,23.44
2023-06-13T13:55:37.213Z,22.91
2023-06-13T13:58:05.347Z,22.44
2023-06-13T14:00:32.588Z,22.13
2023-06-13T14:02:59.376Z,21.92
2023-06-13T14:05:26.012Z,22.49
2023-06-13T14:07:52.478Z,22.42
2023-06-13T14:10:19.105Z,22.66
2023-06-13T14:12:45.813Z,21.98
2023-06-13T14:15:12.390Z,22.08
2023-06-13T14:17:40.142Z,21.90
2023-06-13T14:20:07.607Z,22.03
2023-06-13T14:22:34.071Z,22.15
2023-06-13T14:25:00.870Z,22.48
2023-06-13T14:27:27.316Z,22.55
2023-06-13T14:29:58.984Z,22.92
2023-06-13T14:32:31.781Z,22.44
2023-06-13T14:34:58.399Z,22.10
2023-06-13T14:37:27.228Z,21.79
2023-06-13T14:39:53.662Z,21.92
2023-06-13T14:42:20.179Z,22.26
2023-06-13T14:44:47.039Z,20.99
2023-06-13T14:47:16.118Z,20.90
2023-06-13T14:49:42.934Z,20.82
2023-06-13T14:52:09.977Z,20.24
2023-06-13T14:54:36.464Z,20.25
2023-06-13T14:57:03.380Z,20.30
2023-06-13T14:59:31.223Z,20.37
2023-06-13T15:01:59.525Z,20.48
2023-06-13T15:04:27.505Z,20.94
2023-06-13T15:06:55.870Z,21.16
2023-06-13T15:09:22.499Z,20.91
2023-06-13T15:11:49.193Z,20.89
2023-06-13T15:14:15.769Z,20.66
2023-06-13T15:16:42.668Z,20.34
2023-06-13T15:19:09.193Z,19.96
2023-06-13T15:21:36.157Z,20.43
2023-06-13T15:24:04.023Z,20.56
2023-06-13T15:26:31.027Z,20.58
2023-06-13T15:28:58.237Z,21.07
2023-06-13T15:31:24.818Z,21.32
2023-06-13T15:33:51.320Z,21.57
2023-06-13T15:36:17.800Z,20.40
2023-06-13T15:38:44.273Z,20.50
2023-06-13T15:41:11.060Z,21.00
2023-06-13T15:43:37.509Z,20.34
2023-06-13T15:46:03.987Z,20.18
2023-06-13T15:48:31.168Z,19.73
2023-06-13T15:50:57.638Z,19.70
2023-06-13T15:53:24.126Z,20.64
2023-06-13T15:55:50.698Z,20.58
2023-06-13T15:58:17.212Z,20.36
2023-06-13T16:00:43.726Z,20.00
2023-06-13T16:03:10.610Z,19.21
2023-06-13T16:05:37.322Z,19.68
2023-06-13T16:08:04.243Z,18.75
2023-06-13T16:10:31.104Z,19.11
2023-06-13T16:12:57.654Z,20.27
2023-06-13T16:15:25.248Z,20.38
2023-06-13T16:17:52.330Z,20.16
2023-06-13T16:20:18.933Z,20.37
2023-06-13T16:22:45.507Z,20.90
2023-06-13T16:25:12.010Z,20.32
2023-06-13T16:27:38.505Z,19.51
2023-06-13T16:30:06.686Z,20.00
2023-06-13T16:32:33.821Z,20.60
2023-06-13T16:35:01.927Z,20.74
2023-06-13T16:37:29.216Z,21.13
2023-06-13T16:39:56.105Z,21.44
2023-06-13T16:42:22.658Z,21.83
2023-06-13T16:44:49.105Z,22.68
2023-06-13T16:47:15.588Z,22.87
2023-06-13T16:49:42.009Z,23.22
2023-06-13T16:52:08.707Z,23.80
2023-06-13T16:54:36.480Z,23.68
2023-06-13T16:57:03.378Z,23.54
2023-06-13T16:59:30.868Z,23.59
2023-06-13T17:01:57.768Z,23.85
2023-06-13T17:04:24.472Z,24.05
2023-06-13T17:06:51.529Z,23.75
2023-06-13T17:09:19.695Z,23.94
2023-06-13T17:11:46.266Z,23.92
2023-06-13T17:14:12.692Z,23.64
2023-06-13T17:16:39.186Z,24.22
2023-06-13T17:19:05.710Z,23.83
2023-06-13T17:21:32.577Z,24.11
2023-06-13T17:23:59.973Z,24.22
2023-06-13T17:26:27.382Z,24.19
2023-06-13T17:28:53.883Z,24.35
2023-06-13T17:31:20.379Z,24.05
2023-06-13T17:33:51.082Z,24.18
2023-06-13T17:36:18.799Z,24.34
2023-06-13T17:38:45.496Z,24.91
2023-06-13T17:41:12.956Z,24.69
2023-06-13T17:43:39.432Z,25.07
2023-06-13T17:46:05.877Z,24.80
2023-06-13T17:48:32.429Z,24.66
2023-06-13T17:51:01.187Z,24.70
2023-06-13T17:53:27.628Z,24.80
2023-06-13T17:55:54.058Z,25.13
2023-06-13T17:58:20.503Z,25.17
2023-06-13T18:00:47.294Z,24.66
2023-06-13T18:03:13.957Z,24.91
2023-06-13T18:05:40.644Z,25.50
2023-06-13T18:08:07.250Z,25.38
2023-06-13T18:10:35.864Z,25.27
2023-06-13T18:13:02.957Z,25.63
2023-06-13T18:15:29.609Z,25.63
2023-06-13T18:17:57.024Z,25.77
2023-06-13T18:20:23.757Z,26.11
2023-06-13T18:22:50.569Z,26.02
2023-06-13T18:25:18.838Z,26.19
2023-06-13T18:27:50.109Z,26.26
2023-06-13T18:30:17.445Z,26.04
2023-06-13T18:32:44.011Z,26.30
2023-06-13T18:35:11.046Z,26.53
2023-06-13T18:37:39.088Z,26.80
2023-06-13T18:40:07.603Z,26.65
2023-06-13T18:42:34.325Z,26.38
2023-06-13T18:45:01.070Z,26.29
2023-06-13T18:47:27.833Z,26.54
2023-06-13T18:49:54.318Z,26.92
2023-06-13T18:52:20.785Z,26.75
2023-06-13T18:54:47.759Z,26.60
2023-06-13T18:57:14.275Z,26.03
2023-06-13T18:59:44.022Z,26.16
2023-06-13T19:02:10.560Z,26.33
2023-06-13T19:04:40.043Z,26.42
2023-06-13T19:07:07.684Z,25.51
2023-06-13T19:09:34.235Z,26.17
2023-06-13T19:12:00.705Z,26.28
2023-06-13T19:14:27.556Z,26.19
2023-06-13T19:16:54.012Z,26.26
2023-06-13T19:19:20.525Z,26.78
2023-06-13T19:21:47.559Z,26.85
2023-06-13T19:24:14.115Z,27.51
2023-06-13T19:26:41.803Z,27.80
2023-06-13T19:29:11.822Z,28.14
2023-06-13T19:31:38.292Z,27.97
2023-06-13T19:34:05.185Z,28.54
2023-06-13T19:36:31.782Z,29.02
2023-06-13T19:38:58.990Z,29.07
2023-06-13T19:41:25.462Z,29.36
2023-06-13T19:43:51.980Z,29.84
2023-06-13T19:46:18.523Z,30.14
2023-06-13T19:48:45.063Z,30.16
2023-06-13T19:51:17.957Z,30.23
2023-06-13T19:53:46.376Z,30.62
2023-06-13T19:56:13.292Z,30.97
2023-06-13T19:58:40.714Z,31.63
2023-06-13T20:01:07.246Z,31.44
2023-06-13T20:03:34.031Z,31.48
2023-06-13T20:06:00.603Z,31.62
2023-06-13T20:08:27.292Z,31.84
2023-06-13T20:10:54.085Z,32.15
2023-06-13T20:13:21.047Z,32.78
2023-06-13T20:15:47.528Z,33.03
2023-06-13T20:18:14.242Z,32.70
2023-06-13T20:20:40.837Z,33.40
2023-06-13T20:23:07.491Z,33.29
2023-06-13T20:25:34.137Z,33.91
2023-06-13T20:28:00.579Z,33.87
2023-06-13T20:30:31.759Z,33.91
2023-06-13T20:32:58.620Z,33.83
2023-06-13T20:35:25.121Z,33.90
2023-06-13T20:37:51.531Z,34.22
2023-06-13T20:40:18.549Z,34.39
2023-06-13T20:42:46.869Z,35.06
2023-06-13T20:45:15.710Z,34.77
2023-06-13T20:47:42.774Z,35.40
2023-06-13T20:50:09.607Z,35.40
2023-06-13T20:52:37.457Z,35.75
2023-06-13T20:55:05.598Z,35.86
2023-06-13T20:57:35.425Z,35.97
2023-06-13T21:00:23.191Z,35.96
2023-06-13T21:02:59.406Z,36.54
2023-06-13T21:05:27.531Z,36.81
2023-06-13T21:07:58.622Z,36.88
2023-06-13T21:10:26.498Z,36.64
2023-06-13T21:12:54.209Z,37.21
2023-06-13T21:15:22.732Z,37.54
2023-06-13T21:17:51.641Z,37.64
2023-06-13T21:20:20.730Z,37.63
2023-06-13T21:22:47.828Z,37.53
2023-06-13T21:25:14.735Z,37.95
2023-06-13T21:27:41.752Z,38.67
2023-06-13T21:30:12.261Z,37.98
2023-06-13T21:32:39.167Z,38.38
2023-06-13T21:35:06.483Z,38.41
2023-06-13T21:37:35.260Z,38.47
2023-06-13T21:40:08.890Z,39.02
2023-06-13T21:42:36.991Z,39.30
2023-06-13T21:45:05.701Z,39.71
2023-06-13T21:47:34.774Z,40.01
2023-06-13T21:50:04.814Z,40.28
2023-06-13T21:52:31.728Z,40.45
2023-06-13T21:54:58.386Z,40.50
2023-06-13T21:57:25.056Z,41.03
2023-06-13T21:59:51.634Z,40.70
2023-06-13T22:02:18.124Z,41.45
2023-06-13T22:04:44.591Z,41.73
2023-06-13T22:07:13.014Z,41.81
2023-06-13T22:09:39.800Z,41.64
2023-06-13T22:12:11.413Z,42.19
2023-06-13T22:14:37.861Z,42.29
2023-06-13T22:17:05.457Z,42.91
2023-06-13T22:19:33.084Z,43.00
2023-06-13T22:22:00.065Z,43.61
2023-06-13T22:24:27.860Z,42.82
2023-06-13T22:26:55.220Z,43.00
2023-06-13T22:29:21.998Z,43.01
2023-06-13T22:31:48.625Z,43.16
2023-06-13T22:34:15.216Z,42.80
2023-06-13T22:36:41.653Z,43.28
2023-06-13T22:39:08.120Z,43.54
2023-06-13T22:41:34.569Z,43.41
2023-06-13T22:44:01.129Z,43.86
2023-06-13T22:46:27.774Z,43.63
2023-06-13T22:48:55.048Z,44.23
2023-06-13T22:51:21.712Z,44.17
2023-06-13T22:53:48.485Z,44.80
2023-06-13T22:56:15.155Z,44.95
2023-06-13T22:58:41.704Z,45.45
2023-06-13T23:01:10.830Z,45.84
2023-06-13T23:03:37.441Z,45.98
2023-06-13T23:06:05.310Z,46.13
2023-06-13T23:08:32.120Z,46.93
2023-06-13T23:10:58.872Z,46.99
2023-06-13T23:13:25.481Z,47.75
2023-06-13T23:15:53.496Z,48.10
2023-06-13T23:18:20.213Z,48.10
2023-06-13T23:20:47.222Z,48.34
2023-06-13T23:23:14.104Z,48.66
2023-06-13T23:25:40.661Z,48.60
2023-06-13T23:28:07.264Z,48.86
2023-06-13T23:30:33.802Z,49.28
2023-06-13T23:33:01.839Z,49.31
2023-06-13T23:35:28.613Z,49.38
2023-06-13T23:37:55.289Z,49.87
2023-06-13T23:40:21.898Z,49.87
2023-06-13T23:42:48.759Z,49.92
2023-06-13T23:45:15.239Z,50.24
2023-06-13T23:47:42.046Z,50.22
2023-06-13T23:50:08.997Z,50.36
2023-06-13T23:52:36.123Z,50.07
2023-06-13T23:55:02.901Z,50.17
2023-06-13T23:57:29.488Z,50.12
2023-06-13T23:59:56.162Z,50.28
